Time;durP1;ratioP1;P1;durP2;ratioP2;P2;SDS_P1;SDS_P2;PMS_P1;PMS_P2;Temp;Humidity;BMP_temperature;BMP_pressure;BME280_temperature;BME280_humidity;BME280_pressure;Samples;Min_cycle;Max_cycle;Signal;HPM_P1;HPM_P2
2022/10/02 00:00:53;;;;;;;13.70;3.05;;;;;;;;;;5009320;28;20479;-60
2022/10/02 00:03:23;;;;;;;9.85;2.45;;;;;;;;;;5009125;28;20050;-60
2022/10/02 00:05:54;;;;;;;20.42;3.13;;;;;;;;;;5008647;28;20096;-60
2022/10/02 00:08:24;;;;;;;10.85;3.30;;;;;;;;;;5008077;28;20033;-59
2022/10/02 00:10:52;;;;;;;18.33;3.70;;;;;;;;;;5009303;28;20049;-60
2022/10/02 00:13:23;;;;;;;16.73;4.07;;;;;;;;;;5009261;28;20369;-60
2022/10/02 00:15:49;;;;;;;16.45;3.35;;;;;;;;;;5009321;28;20073;-60
2022/10/02 00:18:18;;;;;;;14.00;2.42;;;;;;;;;;5009527;28;20038;-59
2022/10/02 00:20:48;;;;;;;13.75;2.90;;;;;;;;;;5009441;28;20041;-60
2022/10/02 00:23:19;;;;;;;17.23;2.92;;;;;;;;;;5007323;28;20382;-60
2022/10/02 00:25:51;;;;;;;9.75;3.20;;;;;;;;;;5006511;28;20124;-60
2022/10/02 00:28:24;;;;;;;12.55;2.75;;;;;;;;;;5008778;28;20049;-59
2022/10/02 00:30:50;;;;;;;15.63;2.50;;;;;;;;;;5005656;28;20391;-59
2022/10/02 00:33:27;;;;;;;18.48;2.38;;;;;;;;;;5008720;28;20030;-59
2022/10/02 00:36:03;;;;;;;17.95;2.60;;;;;;;;;;5009042;28;20104;-59
2022/10/02 00:38:36;;;;;;;7.93;2.17;;;;;;;;;;5007387;28;20053;-60
2022/10/02 00:41:10;;;;;;;10.30;2.40;;;;;;;;;;5008669;28;20049;-59
2022/10/02 00:43:55;;;;;;;16.17;2.92;;;;;;;;;;5008007;28;20076;-59
2022/10/02 00:46:29;;;;;;;16.27;3.08;;;;;;;;;;5005612;28;20042;-60
2022/10/02 00:49:03;;;;;;;11.00;1.88;;;;;;;;;;5006197;28;20087;-60
2022/10/02 00:51:36;;;;;;;17.05;1.95;;;;;;;;;;5007844;28;20050;-60
2022/10/02 00:54:12;;;;;;;10.68;1.45;;;;;;;;;;5005238;28;20061;-59
2022/10/02 00:56:48;;;;;;;6.00;1.63;;;;;;;;;;4990649;28;20108;-60
2022/10/02 00:59:14;;;;;;;11.95;1.58;;;;;;;;;;5008031;28;20038;-60
2022/10/02 01:01:40;;;;;;;7.75;2.00;;;;;;;;;;5008161;28;20038;-60
2022/10/02 01:04:10;;;;;;;5.65;1.65;;;;;;;;;;5007836;28;20042;-61
2022/10/02 01:06:36;;;;;;;7.75;2.55;;;;;;;;;;5007604;28;20455;-60
2022/10/02 01:09:03;;;;;;;13.90;2.20;;;;;;;;;;5008736;28;20549;-60
2022/10/02 01:11:29;;;;;;;10.68;1.90;;;;;;;;;;5007773;28;20113;-59
2022/10/02 01:13:56;;;;;;;13.40;1.92;;;;;;;;;;5007694;28;20077;-59
2022/10/02 01:16:22;;;;;;;5.93;1.83;;;;;;;;;;5007373;28;20038;-59
2022/10/02 01:18:48;;;;;;;10.85;2.10;;;;;;;;;;5008086;28;20046;-59
2022/10/02 01:21:21;;;;;;;10.73;1.90;;;;;;;;;;5006380;28;20205;-61
2022/10/02 01:23:48;;;;;;;10.45;1.50;;;;;;;;;;5007690;28;20046;-59
2022/10/02 01:26:14;;;;;;;8.10;1.58;;;;;;;;;;5007376;28;20038;-59
2022/10/02 01:28:40;;;;;;;10.07;1.77;;;;;;;;;;5007753;28;20124;-60
2022/10/02 01:31:09;;;;;;;9.45;2.25;;;;;;;;;;5007201;28;20464;-60
2022/10/02 01:33:36;;;;;;;10.80;2.10;;;;;;;;;;5008138;28;20112;-59
2022/10/02 01:36:03;;;;;;;5.73;1.20;;;;;;;;;;5007765;28;20458;-59
2022/10/02 01:38:30;;;;;;;8.38;1.75;;;;;;;;;;5006404;28;20042;-59
2022/10/02 01:40:56;;;;;;;11.60;2.35;;;;;;;;;;5007861;28;20124;-60
2022/10/02 01:43:25;;;;;;;10.10;1.30;;;;;;;;;;5006637;28;20488;-60
2022/10/02 01:45:52;;;;;;;6.35;1.30;;;;;;;;;;5007224;28;20088;-58
2022/10/02 01:48:22;;;;;;;10.50;1.60;;;;;;;;;;5007214;28;20034;-60
2022/10/02 01:50:56;;;;;;;9.05;1.48;;;;;;;;;;5005369;28;20089;-60
2022/10/02 01:53:28;;;;;;;13.68;1.35;;;;;;;;;;5006098;28;20136;-59
2022/10/02 01:56:00;;;;;;;11.95;1.35;;;;;;;;;;5006952;28;20070;-59
2022/10/02 01:58:39;;;;;;;12.85;1.63;;;;;;;;;;5006792;28;20069;-59
2022/10/02 02:01:20;;;;;;;9.52;1.60;;;;;;;;;;5007891;28;20046;-59
2022/10/02 02:03:58;;;;;;;7.80;1.77;;;;;;;;;;5007173;28;20036;-60
2022/10/02 02:06:25;;;;;;;8.05;1.52;;;;;;;;;;5006271;28;20033;-59
2022/10/02 02:08:51;;;;;;;10.32;2.30;;;;;;;;;;5007248;28;20180;-59
2022/10/02 02:11:19;;;;;;;11.73;2.05;;;;;;;;;;5006545;28;20042;-59
2022/10/02 02:13:45;;;;;;;;;;;;;;;;;;4989708;28;20042;-58
2022/10/02 02:16:21;;;;;;;13.93;2.15;;;;;;;;;;5006921;28;19956;-60
2022/10/02 02:18:52;;;;;;;9.25;2.13;;;;;;;;;;5006906;28;20125;-60
2022/10/02 02:21:28;;;;;;;6.43;1.88;;;;;;;;;;5006291;28;20053;-59
2022/10/02 02:23:56;;;;;;;13.15;2.40;;;;;;;;;;5006220;28;20038;-59
2022/10/02 02:26:23;;;;;;;12.80;2.33;;;;;;;;;;5007045;28;20145;-60
2022/10/02 02:28:51;;;;;;;8.18;1.83;;;;;;;;;;5006786;28;20121;-59
2022/10/02 02:31:17;;;;;;;;;;;;;;;;;;5006922;28;20049;-59
2022/10/02 02:33:47;;;;;;;13.25;2.15;;;;;;;;;;5007243;28;20364;-60
2022/10/02 02:36:16;;;;;;;15.98;2.20;;;;;;;;;;5005927;28;20428;-59
2022/10/02 02:39:01;;;;;;;14.60;2.15;;;;;;;;;;5007237;28;20089;-60
2022/10/02 02:41:28;;;;;;;15.40;2.40;;;;;;;;;;5005418;28;20037;-60
2022/10/02 02:44:00;;;;;;;9.35;2.40;;;;;;;;;;5006417;28;20034;-59
2022/10/02 02:46:31;;;;;;;10.85;2.28;;;;;;;;;;5008970;28;20049;-60
2022/10/02 02:49:00;;;;;;;22.92;3.33;;;;;;;;;;5010118;28;20403;-60
2022/10/02 02:51:29;;;;;;;11.25;2.67;;;;;;;;;;5010048;28;20042;-58
2022/10/02 02:53:59;;;;;;;21.90;3.03;;;;;;;;;;5010358;28;20065;-60
2022/10/02 02:56:27;;;;;;;10.82;3.20;;;;;;;;;;5009985;28;20144;-59
2022/10/02 02:58:54;;;;;;;12.88;3.13;;;;;;;;;;5007740;28;20045;-59
2022/10/02 03:01:20;;;;;;;12.90;2.42;;;;;;;;;;5010309;28;20069;-60
2022/10/02 03:03:47;;;;;;;10.52;2.33;;;;;;;;;;5010513;28;20412;-60
2022/10/02 03:06:35;;;;;;;18.38;2.40;;;;;;;;;;5009556;28;20037;-60
2022/10/02 03:09:02;;;;;;;12.70;2.63;;;;;;;;;;5010784;28;20099;-59
2022/10/02 03:11:40;;;;;;;12.98;2.20;;;;;;;;;;5009822;28;20043;-59
2022/10/02 03:14:07;;;;;;;;;;;;;;;;;;5010363;28;20500;-60
2022/10/02 03:16:39;;;;;;;12.55;2.08;;;;;;;;;;5010404;28;19928;-58
2022/10/02 03:19:14;;;;;;;18.83;2.83;;;;;;;;;;5008341;28;20069;-59
2022/10/02 03:21:49;;;;;;;7.55;2.38;;;;;;;;;;4992009;28;20038;-60
2022/10/02 03:24:16;;;;;;;11.35;1.98;;;;;;;;;;5007851;28;20084;-60
2022/10/02 03:26:46;;;;;;;6.72;1.55;;;;;;;;;;5010102;28;20056;-60
2022/10/02 03:29:18;;;;;;;14.90;2.20;;;;;;;;;;5009586;28;20170;-59
2022/10/02 03:31:44;;;;;;;17.77;2.58;;;;;;;;;;5009955;28;20091;-59
2022/10/02 03:34:11;;;;;;;17.13;2.72;;;;;;;;;;5008385;28;20042;-59
2022/10/02 03:36:37;;;;;;;21.65;3.30;;;;;;;;;;5009440;28;20042;-59
2022/10/02 03:39:04;;;;;;;13.15;1.58;;;;;;;;;;5010043;28;20041;-59
2022/10/02 03:41:31;;;;;;;13.15;1.60;;;;;;;;;;5009384;28;20132;-59
2022/10/02 03:43:57;;;;;;;8.23;1.42;;;;;;;;;;5009572;28;20454;-58
2022/10/02 03:46:23;;;;;;;9.93;1.60;;;;;;;;;;5009420;28;20044;-59
2022/10/02 03:48:49;;;;;;;11.30;1.80;;;;;;;;;;5009613;28;20081;-58
2022/10/02 03:51:15;;;;;;;12.52;1.60;;;;;;;;;;5008324;28;20416;-59
2022/10/02 03:53:42;;;;;;;8.05;1.55;;;;;;;;;;5009015;28;20742;-60
2022/10/02 03:56:12;;;;;;;9.80;1.75;;;;;;;;;;5008662;28;20042;-59
2022/10/02 03:58:40;;;;;;;10.85;2.10;;;;;;;;;;5008047;28;20042;-59
2022/10/02 04:01:11;;;;;;;9.52;1.20;;;;;;;;;;5009244;28;20029;-60
2022/10/02 04:03:43;;;;;;;6.22;1.23;;;;;;;;;;5007847;28;20492;-60
2022/10/02 04:06:12;;;;;;;8.50;1.25;;;;;;;;;;5006231;28;20036;-60
2022/10/02 04:08:43;;;;;;;3.63;0.88;;;;;;;;;;5008989;28;20109;-60
2022/10/02 04:11:15;;;;;;;10.02;1.65;;;;;;;;;;5008652;28;20037;-60
2022/10/02 04:13:47;;;;;;;8.30;1.63;;;;;;;;;;5009258;28;20045;-60
2022/10/02 04:16:16;;;;;;;8.07;1.20;;;;;;;;;;5008777;28;20121;-59
2022/10/02 04:18:46;;;;;;;8.50;1.20;;;;;;;;;;5008948;28;20057;-60
2022/10/02 04:21:16;;;;;;;7.55;1.70;;;;;;;;;;5006765;28;20045;-60
2022/10/02 04:23:45;;;;;;;10.15;1.15;;;;;;;;;;5008598;28;20038;-60
2022/10/02 04:26:15;;;;;;;8.23;1.70;;;;;;;;;;5008732;28;20073;-60
2022/10/02 04:28:45;;;;;;;9.93;1.65;;;;;;;;;;5008069;28;20120;-60
2022/10/02 04:31:12;;;;;;;7.30;1.20;;;;;;;;;;5008521;28;20049;-59
2022/10/02 04:33:38;;;;;;;13.50;2.28;;;;;;;;;;5008434;28;20042;-60
2022/10/02 04:36:10;;;;;;;16.13;1.50;;;;;;;;;;5008332;28;20439;-59
2022/10/02 04:38:37;;;;;;;9.13;1.23;;;;;;;;;;5008294;28;20084;-60
2022/10/02 04:41:17;;;;;;;8.02;1.15;;;;;;;;;;5009196;28;20073;-59
2022/10/02 04:43:44;;;;;;;12.18;1.60;;;;;;;;;;5007472;28;20170;-59
2022/10/02 04:46:26;;;;;;;12.82;1.20;;;;;;;;;;5008044;28;20420;-60
2022/10/02 04:48:56;;;;;;;7.05;1.63;;;;;;;;;;5008582;28;20099;-59
2022/10/02 04:51:41;;;;;;;14.45;1.80;;;;;;;;;;5007494;28;20129;-60
2022/10/02 04:54:08;;;;;;;9.85;1.45;;;;;;;;;;5007489;28;20061;-60
2022/10/02 04:56:55;;;;;;;10.73;1.48;;;;;;;;;;5008293;28;20101;-60
2022/10/02 04:59:48;;;;;;;11.27;1.85;;;;;;;;;;5007788;28;20034;-59
2022/10/02 05:02:15;;;;;;;10.48;1.45;;;;;;;;;;4989862;28;20120;-60
2022/10/02 05:04:50;;;;;;;11.98;1.25;;;;;;;;;;5007431;28;20480;-59
2022/10/02 05:07:24;;;;;;;8.13;1.65;;;;;;;;;;5007290;28;20095;-59
2022/10/02 05:10:00;;;;;;;15.70;1.50;;;;;;;;;;5006692;28;20042;-59
2022/10/02 05:12:36;;;;;;;12.13;1.65;;;;;;;;;;5007537;28;20124;-60
2022/10/02 05:15:17;;;;;;;10.57;1.65;;;;;;;;;;4990185;28;20050;-60
2022/10/02 05:17:49;;;;;;;7.43;1.27;;;;;;;;;;5008041;28;20045;-60
2022/10/02 05:20:28;;;;;;;10.18;1.30;;;;;;;;;;5007721;28;20137;-60
2022/10/02 05:22:58;;;;;;;10.95;1.35;;;;;;;;;;5007308;28;20050;-59
2022/10/02 05:25:39;;;;;;;6.47;1.10;;;;;;;;;;5007418;28;20451;-59
2022/10/02 05:28:18;;;;;;;10.40;1.17;;;;;;;;;;5007534;28;20080;-58
2022/10/02 05:30:53;;;;;;;21.08;1.30;;;;;;;;;;5007529;28;20044;-59
2022/10/02 05:33:21;;;;;;;7.30;1.50;;;;;;;;;;5005844;28;20046;-60
2022/10/02 05:35:49;;;;;;;7.45;1.52;;;;;;;;;;5006925;28;20081;-58
2022/10/02 05:38:21;;;;;;;10.85;1.95;;;;;;;;;;5007290;28;20046;-60
2022/10/02 05:40:47;;;;;;;6.95;1.52;;;;;;;;;;5007021;28;20467;-60
2022/10/02 05:43:17;;;;;;;19.10;2.22;;;;;;;;;;5007266;28;20076;-59
2022/10/02 05:45:46;;;;;;;12.15;1.48;;;;;;;;;;5005060;28;20116;-60
2022/10/02 05:48:15;;;;;;;11.13;2.00;;;;;;;;;;5007061;28;20484;-59
2022/10/02 05:50:42;;;;;;;18.40;2.33;;;;;;;;;;5006333;28;20049;-58
2022/10/02 05:53:11;;;;;;;15.18;2.17;;;;;;;;;;4989203;28;20042;-60
2022/10/02 05:55:39;;;;;;;12.85;2.25;;;;;;;;;;5006827;28;20070;-59
2022/10/02 05:58:07;;;;;;;16.02;1.25;;;;;;;;;;5006950;28;20041;-59
2022/10/02 06:00:42;;;;;;;10.13;2.50;;;;;;;;;;4993019;28;20042;-60
2022/10/02 06:03:21;;;;;;;12.95;1.90;;;;;;;;;;4995466;28;20041;-60
2022/10/02 06:05:54;;;;;;;14.38;1.63;;;;;;;;;;4987749;28;20089;-60
2022/10/02 06:08:24;;;;;;;15.40;2.45;;;;;;;;;;4994652;28;20054;-60
2022/10/02 06:10:53;;;;;;;12.68;2.20;;;;;;;;;;4992970;28;20507;-60
2022/10/02 06:13:23;;;;;;;7.50;1.35;;;;;;;;;;4994024;28;20042;-59
2022/10/02 06:15:51;;;;;;;11.75;2.05;;;;;;;;;;4992360;28;20081;-60
2022/10/02 06:18:19;;;;;;;11.43;1.40;;;;;;;;;;4992402;28;20034;-60
2022/10/02 06:20:49;;;;;;;6.32;1.58;;;;;;;;;;4989728;28;20477;-60
2022/10/02 06:23:20;;;;;;;14.70;2.13;;;;;;;;;;4988744;28;20035;-60
2022/10/02 06:25:49;;;;;;;14.13;1.80;;;;;;;;;;4993032;28;20121;-59
2022/10/02 06:28:18;;;;;;;11.63;1.85;;;;;;;;;;4988952;28;20366;-60
2022/10/02 06:30:47;;;;;;;11.13;1.80;;;;;;;;;;4994835;28;20046;-60
2022/10/02 06:33:13;;;;;;;;;;;;;;;;;;4994117;28;20069;-61
2022/10/02 06:35:50;;;;;;;11.63;2.22;;;;;;;;;;4991792;28;19932;-60
2022/10/02 06:38:25;;;;;;;11.73;2.40;;;;;;;;;;4996040;28;20536;-60
2022/10/02 06:40:56;;;;;;;11.88;2.33;;;;;;;;;;4995912;28;20066;-60
2022/10/02 06:43:30;;;;;;;13.50;1.65;;;;;;;;;;4994962;28;20033;-60
2022/10/02 06:46:10;;;;;;;12.88;1.77;;;;;;;;;;4991614;28;20046;-60
2022/10/02 06:48:49;;;;;;;12.38;2.10;;;;;;;;;;4996642;28;20508;-60
2022/10/02 06:51:29;;;;;;;13.00;1.90;;;;;;;;;;4998012;28;20047;-61
2022/10/02 06:54:00;;;;;;;9.70;1.60;;;;;;;;;;4991152;28;20089;-60
2022/10/02 06:56:35;;;;;;;13.50;1.90;;;;;;;;;;4995129;28;20050;-60
2022/10/02 06:59:06;;;;;;;21.75;2.10;;;;;;;;;;4988556;28;20042;-60
2022/10/02 07:01:50;;;;;;;12.07;1.90;;;;;;;;;;4990675;28;20045;-60
2022/10/02 07:04:28;;;;;;;14.55;2.25;;;;;;;;;;4990270;28;20085;-60
2022/10/02 07:07:00;;;;;;;15.13;1.67;;;;;;;;;;4990391;28;20088;-61
2022/10/02 07:09:36;;;;;;;10.90;2.13;;;;;;;;;;4993966;28;20034;-60
2022/10/02 07:12:06;;;;;;;14.13;2.17;;;;;;;;;;4988358;28;20484;-61
2022/10/02 07:14:46;;;;;;;11.55;1.90;;;;;;;;;;4990074;28;20046;-60
2022/10/02 07:17:20;;;;;;;9.27;1.85;;;;;;;;;;4989257;28;20042;-60
2022/10/02 07:19:50;;;;;;;11.68;2.10;;;;;;;;;;4991160;28;20149;-60
2022/10/02 07:22:40;;;;;;;11.82;1.80;;;;;;;;;;4988041;28;20057;-60
2022/10/02 07:25:25;;;;;;;9.85;1.70;;;;;;;;;;5003230;28;20510;-61
2022/10/02 07:28:00;;;;;;;9.73;1.88;;;;;;;;;;5006409;28;20093;-60
2022/10/02 07:30:30;;;;;;;16.13;1.95;;;;;;;;;;5006011;28;20049;-60
2022/10/02 07:33:00;;;;;;;12.10;1.95;;;;;;;;;;5008773;28;20057;-60
2022/10/02 07:35:40;;;;;;;17.98;2.00;;;;;;;;;;5007963;28;20049;-60
2022/10/02 07:38:41;;;;;;;10.98;2.03;;;;;;;;;;5009513;28;20045;-61
2022/10/02 07:41:16;;;;;;;12.38;2.03;;;;;;;;;;5009276;28;20100;-61
2022/10/02 07:43:49;;;;;;;12.70;1.80;;;;;;;;;;5008044;28;20073;-60
2022/10/02 07:46:19;;;;;;;10.25;1.70;;;;;;;;;;5019273;28;20139;-62
2022/10/02 07:48:53;;;;;;;14.23;1.95;;;;;;;;;;5008122;28;20042;-62
2022/10/02 07:54:23;;;;;;;7.63;1.55;;;;;;;;;;5014015;28;20508;-62
2022/10/02 07:56:50;;;;;;;17.58;2.20;;;;;;;;;;5007532;28;20144;-62
2022/10/02 07:59:17;;;;;;;15.23;1.65;;;;;;;;;;5007368;28;20133;-62
2022/10/02 08:01:44;;;;;;;9.68;1.40;;;;;;;;;;5007768;28;20101;-62
2022/10/02 08:04:17;;;;;;;12.27;2.55;;;;;;;;;;5007870;28;20733;-62
2022/10/02 08:06:45;;;;;;;10.43;1.55;;;;;;;;;;5004374;28;20048;-62
2022/10/02 08:09:15;;;;;;;18.20;2.65;;;;;;;;;;5007799;28;20079;-62
2022/10/02 08:11:42;;;;;;;13.70;1.88;;;;;;;;;;5007388;28;20400;-62
2022/10/02 08:14:17;;;;;;;10.15;1.55;;;;;;;;;;5007355;28;20053;-62
2022/10/02 08:16:47;;;;;;;14.30;2.10;;;;;;;;;;5007466;28;20161;-63
2022/10/02 08:19:16;;;;;;;16.20;2.80;;;;;;;;;;5006756;28;20181;-62
2022/10/02 08:21:45;;;;;;;6.85;1.50;;;;;;;;;;5002552;28;20080;-62
2022/10/02 08:24:18;;;;;;;11.50;1.45;;;;;;;;;;5003757;28;20084;-62
2022/10/02 08:26:54;;;;;;;12.68;1.63;;;;;;;;;;5003162;28;20050;-64
2022/10/02 08:29:24;;;;;;;12.15;2.08;;;;;;;;;;5006355;28;20065;-63
2022/10/02 08:31:52;;;;;;;14.68;1.73;;;;;;;;;;5004223;28;20041;-63
2022/10/02 08:34:19;;;;;;;13.75;2.33;;;;;;;;;;5004758;28;20042;-64
2022/10/02 08:37:01;;;;;;;12.73;1.52;;;;;;;;;;5005097;28;20038;-61
2022/10/02 08:39:37;;;;;;;10.07;1.80;;;;;;;;;;5001301;28;20097;-62
2022/10/02 08:42:12;;;;;;;11.57;1.60;;;;;;;;;;4999486;28;20030;-62
2022/10/02 08:44:57;;;;;;;12.77;2.10;;;;;;;;;;5004797;28;20511;-60
2022/10/02 08:47:27;;;;;;;9.45;1.42;;;;;;;;;;5003971;28;20100;-60
2022/10/02 08:50:15;;;;;;;15.05;1.92;;;;;;;;;;5004601;28;20057;-60
2022/10/02 08:53:01;;;;;;;11.73;1.93;;;;;;;;;;5003286;28;20050;-60
2022/10/02 08:55:27;;;;;;;15.25;1.88;;;;;;;;;;5001256;28;20065;-59
2022/10/02 08:57:56;;;;;;;12.03;1.67;;;;;;;;;;5004139;28;20133;-59
2022/10/02 09:00:23;;;;;;;14.18;1.88;;;;;;;;;;5002768;28;20480;-59
2022/10/02 09:03:08;;;;;;;15.32;1.55;;;;;;;;;;5002134;28;20050;-59
2022/10/02 09:05:53;;;;;;;9.25;1.30;;;;;;;;;;5003723;28;20056;-59
2022/10/02 09:08:25;;;;;;;11.68;1.95;;;;;;;;;;5004143;28;20046;-60
2022/10/02 09:11:01;;;;;;;14.23;1.90;;;;;;;;;;4986409;28;20054;-59
2022/10/02 09:13:41;;;;;;;15.27;1.65;;;;;;;;;;5004157;28;20137;-60
2022/10/02 09:16:18;;;;;;;15.43;2.15;;;;;;;;;;5002911;28;20059;-61
2022/10/02 09:18:55;;;;;;;12.25;2.38;;;;;;;;;;5003351;28;20042;-58
2022/10/02 09:21:22;;;;;;;13.25;2.20;;;;;;;;;;5000483;28;20480;-60
2022/10/02 09:23:55;;;;;;;11.27;1.95;;;;;;;;;;5001971;28;20381;-59
2022/10/02 09:26:22;;;;;;;14.20;2.13;;;;;;;;;;5003504;28;20052;-60
2022/10/02 09:32:23;;;;;;;11.27;1.60;;;;;;;;;;5000565;28;20041;-60
2022/10/02 09:35:05;;;;;;;17.45;2.10;;;;;;;;;;5003809;28;20076;-59
2022/10/02 09:37:42;;;;;;;22.13;2.42;;;;;;;;;;5002417;28;20046;-59
2022/10/02 09:40:13;;;;;;;16.52;2.22;;;;;;;;;;4997908;28;20719;-60
2022/10/02 09:42:43;;;;;;;8.65;1.65;;;;;;;;;;5003347;28;20399;-58
2022/10/02 09:45:27;;;;;;;15.73;1.95;;;;;;;;;;5001809;28;20046;-60
2022/10/02 09:48:17;;;;;;;19.10;2.13;;;;;;;;;;5002939;28;20554;-60
2022/10/02 09:50:55;;;;;;;12.77;2.42;;;;;;;;;;5001318;28;20053;-60
2022/10/02 09:53:32;;;;;;;18.58;2.03;;;;;;;;;;5002901;28;20049;-59
2022/10/02 09:56:24;;;;;;;15.10;2.38;;;;;;;;;;5000031;28;20050;-59
2022/10/02 09:59:07;;;;;;;11.00;1.60;;;;;;;;;;5002965;28;20484;-60
2022/10/02 10:01:44;;;;;;;12.23;2.05;;;;;;;;;;5004007;28;20081;-59
2022/10/02 10:04:26;;;;;;;10.93;1.75;;;;;;;;;;5001651;28;20042;-57
2022/10/02 10:06:59;;;;;;;16.52;2.08;;;;;;;;;;5001908;28;20041;-59
2022/10/02 10:09:28;;;;;;;15.35;2.20;;;;;;;;;;4985363;28;20052;-59
2022/10/02 10:12:10;;;;;;;13.90;1.92;;;;;;;;;;5002832;28;20042;-59
2022/10/02 10:14:37;;;;;;;15.10;2.95;;;;;;;;;;5002665;28;20482;-60
2022/10/02 10:17:30;;;;;;;12.45;1.50;;;;;;;;;;5003923;28;20046;-60
2022/10/02 10:20:21;;;;;;;19.88;1.92;;;;;;;;;;4998880;28;20594;-59
2022/10/02 10:23:03;;;;;;;8.75;1.55;;;;;;;;;;5003003;28;20054;-60
2022/10/02 10:25:37;;;;;;;13.23;1.60;;;;;;;;;;5001742;28;20443;-60
2022/10/02 10:28:14;;;;;;;18.13;1.90;;;;;;;;;;5004065;28;20030;-60
2022/10/02 10:30:41;;;;;;;10.68;1.67;;;;;;;;;;5000726;28;20053;-59
2022/10/02 10:33:19;;;;;;;10.75;1.48;;;;;;;;;;5003135;28;20502;-60
2022/10/02 10:35:48;;;;;;;14.05;1.52;;;;;;;;;;5002298;28;20046;-59
2022/10/02 10:38:31;;;;;;;17.48;2.28;;;;;;;;;;4997432;28;20078;-59
2022/10/02 10:41:04;;;;;;;13.00;1.92;;;;;;;;;;5002048;28;20084;-59
2022/10/02 10:43:32;;;;;;;15.52;1.80;;;;;;;;;;5001010;28;20563;-59
2022/10/02 10:46:07;;;;;;;11.90;1.73;;;;;;;;;;4994071;28;20117;-59
2022/10/02 10:48:33;;;;;;;14.98;1.90;;;;;;;;;;4973387;28;20057;-60
2022/10/02 10:51:15;;;;;;;9.73;1.55;;;;;;;;;;4995006;28;20041;-60
2022/10/02 10:54:03;;;;;;;10.45;1.08;;;;;;;;;;4991681;28;20066;-60
2022/10/02 10:56:31;;;;;;;7.15;1.65;;;;;;;;;;4985258;28;20105;-60
2022/10/02 10:59:16;;;;;;;14.20;1.60;;;;;;;;;;4991520;28;20105;-60
2022/10/02 11:01:46;;;;;;;11.20;1.38;;;;;;;;;;4992517;28;20056;-60
2022/10/02 11:04:30;;;;;;;12.73;1.25;;;;;;;;;;4998901;28;20050;-60
2022/10/02 11:06:57;;;;;;;7.65;1.20;;;;;;;;;;4992398;28;20042;-60
2022/10/02 11:09:25;;;;;;;10.00;2.20;;;;;;;;;;4988600;28;20042;-60
2022/10/02 11:11:54;;;;;;;9.55;1.25;;;;;;;;;;4993685;28;20120;-60
2022/10/02 11:14:40;;;;;;;11.75;1.40;;;;;;;;;;4989072;28;20054;-59
2022/10/02 11:17:10;;;;;;;7.32;1.20;;;;;;;;;;4994407;28;20064;-60
2022/10/02 11:19:40;;;;;;;11.05;1.92;;;;;;;;;;4988706;28;20144;-60
2022/10/02 11:22:20;;;;;;;11.05;1.20;;;;;;;;;;4991149;28;20062;-60
2022/10/02 11:24:55;;;;;;;9.80;1.38;;;;;;;;;;4990788;28;20046;-58
2022/10/02 11:30:57;;;;;;;10.82;1.35;;;;;;;;;;5004329;28;20049;-59
2022/10/02 11:33:34;;;;;;;11.20;1.52;;;;;;;;;;4992809;28;20050;-59
2022/10/02 11:36:05;;;;;;;10.65;1.38;;;;;;;;;;5004847;28;20037;-58
2022/10/02 11:38:44;;;;;;;12.48;1.25;;;;;;;;;;5007740;28;20430;-59
2022/10/02 11:41:29;;;;;;;10.15;1.48;;;;;;;;;;5007196;28;20049;-59
2022/10/02 11:44:08;;;;;;;21.95;1.65;;;;;;;;;;5007580;28;20355;-60
2022/10/02 11:46:52;;;;;;;11.82;1.25;;;;;;;;;;5008022;28;20136;-60
2022/10/02 11:49:37;;;;;;;16.27;2.55;;;;;;;;;;5006512;28;20046;-59
2022/10/02 11:52:17;;;;;;;10.82;1.55;;;;;;;;;;5007400;28;20038;-60
2022/10/02 11:54:57;;;;;;;13.40;1.83;;;;;;;;;;5003854;28;20103;-60
2022/10/02 11:57:33;;;;;;;14.98;1.95;;;;;;;;;;5004787;28;20057;-59
2022/10/02 12:00:04;;;;;;;13.40;1.35;;;;;;;;;;5004833;28;20042;-60
2022/10/02 12:02:31;;;;;;;10.02;1.50;;;;;;;;;;5008365;28;20050;-59
2022/10/02 12:05:09;;;;;;;11.75;1.25;;;;;;;;;;5008815;28;20049;-59
2022/10/02 12:07:36;;;;;;;;;;;;;;;;;;5009441;28;20069;-59
2022/10/02 12:10:12;;;;;;;7.32;0.90;;;;;;;;;;5005448;28;19929;-59
2022/10/02 12:12:56;;;;;;;16.80;2.17;;;;;;;;;;5007028;28;20038;-59
2022/10/02 12:15:41;;;;;;;10.30;1.25;;;;;;;;;;5005457;28;20049;-58
2022/10/02 12:18:27;;;;;;;11.65;1.02;;;;;;;;;;5005457;28;21796;-60
2022/10/02 12:27:08;;;;;;;17.67;1.80;;;;;;;;;;5006643;28;20080;-59
2022/10/02 12:29:39;;;;;;;9.30;1.65;;;;;;;;;;5006893;28;20054;-59
2022/10/02 12:32:07;;;;;;;10.95;1.30;;;;;;;;;;5003936;28;20050;-60
2022/10/02 12:34:39;;;;;;;12.68;1.45;;;;;;;;;;5000139;28;20137;-60
2022/10/02 12:37:25;;;;;;;13.15;1.27;;;;;;;;;;5003063;28;20045;-59
2022/10/02 12:40:13;;;;;;;7.55;1.40;;;;;;;;;;5004109;28;20041;-60
2022/10/02 12:42:40;;;;;;;10.00;1.08;;;;;;;;;;5002470;28;20532;-60
2022/10/02 12:45:24;;;;;;;11.43;1.30;;;;;;;;;;5005823;28;20046;-58
2022/10/02 12:48:00;;;;;;;12.32;1.55;;;;;;;;;;5003049;28;20085;-60
2022/10/02 12:50:36;;;;;;;11.05;1.20;;;;;;;;;;5005677;28;20042;-59
2022/10/02 12:53:03;;;;;;;14.50;1.23;;;;;;;;;;5004026;28;20042;-60
2022/10/02 12:55:45;;;;;;;8.18;1.27;;;;;;;;;;5005259;28;20053;-60
2022/10/02 12:58:23;;;;;;;10.75;0.98;;;;;;;;;;5002350;28;20046;-60
2022/10/02 13:00:50;;;;;;;;;;;;;;;;;;5006697;28;20038;-59
2022/10/02 13:03:28;;;;;;;8.80;0.75;;;;;;;;;;5006096;28;19933;-60
2022/10/02 13:06:02;;;;;;;11.68;1.17;;;;;;;;;;5003912;28;20042;-59
2022/10/02 13:08:47;;;;;;;6.95;1.10;;;;;;;;;;5003887;28;20058;-60
2022/10/02 13:11:19;;;;;;;9.10;1.08;;;;;;;;;;5005081;28;20042;-60
2022/10/02 13:13:56;;;;;;;12.60;1.00;;;;;;;;;;5005907;28;20052;-60
2022/10/02 13:16:30;;;;;;;10.77;1.47;;;;;;;;;;5005721;28;20041;-60
2022/10/02 13:19:04;;;;;;;4.78;0.80;;;;;;;;;;5005383;28;20496;-60
2022/10/02 13:21:36;;;;;;;7.65;0.77;;;;;;;;;;5002495;28;20041;-59
2022/10/02 13:24:05;;;;;;;6.07;0.73;;;;;;;;;;5003992;28;20096;-59
2022/10/02 13:26:37;;;;;;;10.07;1.05;;;;;;;;;;5006455;28;20111;-60
2022/10/02 13:29:08;;;;;;;7.38;1.10;;;;;;;;;;5005876;28;20543;-60
2022/10/02 13:31:35;;;;;;;10.32;1.00;;;;;;;;;;4992274;28;20120;-60
2022/10/02 13:34:05;;;;;;;11.43;1.17;;;;;;;;;;5003376;28;20117;-59
2022/10/02 13:36:46;;;;;;;9.35;1.10;;;;;;;;;;5004841;28;20073;-59
2022/10/02 13:39:32;;;;;;;9.35;0.95;;;;;;;;;;5005029;28;20042;-59
2022/10/02 13:42:13;;;;;;;6.43;0.93;;;;;;;;;;5005151;28;20048;-59
2022/10/02 13:44:57;;;;;;;7.70;1.17;;;;;;;;;;5005034;28;20073;-59
2022/10/02 13:47:40;;;;;;;8.65;0.90;;;;;;;;;;5000857;28;20109;-59
2022/10/02 13:50:19;;;;;;;12.15;1.05;;;;;;;;;;5002125;28;20050;-57
2022/10/02 13:53:04;;;;;;;12.02;1.20;;;;;;;;;;5005032;28;20054;-60
2022/10/02 13:55:32;;;;;;;13.20;0.93;;;;;;;;;;5003695;28;20065;-59
2022/10/02 13:57:59;;;;;;;14.00;1.65;;;;;;;;;;5001452;28;20037;-59
2022/10/02 14:00:37;;;;;;;9.68;1.25;;;;;;;;;;5004795;28;20048;-59
2022/10/02 14:03:03;;;;;;;;;;;;;;;;;;5003555;28;20400;-59
2022/10/02 14:05:30;;;;;;;;;;;;;;;;;;5004720;28;19921;-59
2022/10/02 14:07:56;;;;;;;;;;;;;;;;;;5005446;28;20379;-59
2022/10/02 14:10:22;;;;;;;;;;;;;;;;;;5004664;28;20044;-59
2022/10/02 14:12:48;;;;;;;;;;;;;;;;;;5005639;28;19932;-59
2022/10/02 14:15:14;;;;;;;;;;;;;;;;;;5004818;28;19926;-58
2022/10/02 14:17:41;;;;;;;;;;;;;;;;;;5003961;28;19972;-59
2022/10/02 14:20:07;;;;;;;;;;;;;;;;;;5004073;28;19936;-60
2022/10/02 14:22:33;;;;;;;;;;;;;;;;;;5005598;28;19925;-60
2022/10/02 14:24:59;;;;;;;;;;;;;;;;;;5004686;28;19976;-59
2022/10/02 14:27:25;;;;;;;;;;;;;;;;;;5001003;28;19925;-59
2022/10/02 14:29:51;;;;;;;;;;;;;;;;;;5005677;28;19925;-59
2022/10/02 14:32:17;;;;;;;;;;;;;;;;;;5005088;28;19929;-59
2022/10/02 14:34:44;;;;;;;;;;;;;;;;;;5004457;28;20007;-59
2022/10/02 14:37:10;;;;;;;;;;;;;;;;;;4987371;28;19980;-60
2022/10/02 14:39:36;;;;;;;;;;;;;;;;;;5003020;28;20012;-60
2022/10/02 14:42:02;;;;;;;;;;;;;;;;;;5001996;28;19924;-58
2022/10/02 14:44:28;;;;;;;;;;;;;;;;;;5008337;28;19937;-59
2022/10/02 14:46:55;;;;;;;;;;;;;;;;;;5009320;28;20386;-59
2022/10/02 14:49:21;;;;;;;;;;;;;;;;;;5008130;28;21586;-59
2022/10/02 14:51:50;;;;;;;;;;;;;;;;;;5008824;28;20454;-59
2022/10/02 14:54:16;;;;;;;;;;;;;;;;;;5003894;28;20294;-59
2022/10/02 14:56:42;;;;;;;;;;;;;;;;;;5006354;28;19925;-59
2022/10/02 14:59:09;;;;;;;;;;;;;;;;;;5004488;28;19965;-59
2022/10/02 15:01:35;;;;;;;;;;;;;;;;;;5008731;28;20032;-60
2022/10/02 15:04:01;;;;;;;;;;;;;;;;;;5008247;28;19979;-60
2022/10/02 15:06:28;;;;;;;;;;;;;;;;;;5008761;28;19929;-59
2022/10/02 15:08:54;;;;;;;;;;;;;;;;;;4994258;28;19926;-59
2022/10/02 15:11:20;;;;;;;;;;;;;;;;;;5008359;28;19983;-60
2022/10/02 15:13:46;;;;;;;;;;;;;;;;;;5008491;28;19932;-60
2022/10/02 15:18:57;;;;;;;;;;;;;;;;;;5005505;28;19932;-58
2022/10/02 15:21:25;;;;;;;;;;;;;;;;;;5008169;28;19930;-58
2022/10/02 15:23:51;;;;;;;;;;;;;;;;;;5007941;28;19923;-58
2022/10/02 15:26:18;;;;;;;;;;;;;;;;;;5007910;28;20072;-57
2022/10/02 15:28:44;;;;;;;;;;;;;;;;;;5008164;28;19921;-58
2022/10/02 15:31:10;;;;;;;;;;;;;;;;;;5007947;28;19936;-58
2022/10/02 15:33:36;;;;;;;;;;;;;;;;;;4990006;28;19927;-58
2022/10/02 15:36:05;;;;;;;;;;;;;;;;;;5007422;28;19921;-57
2022/10/02 15:38:32;;;;;;;;;;;;;;;;;;5004769;28;19929;-58